sensor_id;sensor_type;location;lat;lon;timestamp;pressure;altitude;pressure_sealevel;temperature
1532;BMP280;759;53.170;8.210;2022-10-15T00:02:06;99709.75;;;12.57
1532;BMP280;759;53.170;8.210;2022-10-15T00:04:32;99736.75;;;12.79
1532;BMP280;759;53.170;8.210;2022-10-15T00:06:57;99783.56;;;13.04
1532;BMP280;759;53.170;8.210;2022-10-15T00:09:23;99693.28;;;12.42
1532;BMP280;759;53.170;8.210;2022-10-15T00:11:48;99697.59;;;12.53
1532;BMP280;759;53.170;8.210;2022-10-15T00:14:14;99719.19;;;12.62
1532;BMP280;759;53.170;8.210;2022-10-15T00:16:39;99701.66;;;12.45
1532;BMP280;759;53.170;8.210;2022-10-15T00:19:04;99725.53;;;12.68
1532;BMP280;759;53.170;8.210;2022-10-15T00:21:30;99718.16;;;12.72
1532;BMP280;759;53.170;8.210;2022-10-15T00:23:55;99726.63;;;12.71
1532;BMP280;759;53.170;8.210;2022-10-15T00:26:23;99720.19;;;12.68
1532;BMP280;759;53.170;8.210;2022-10-15T00:28:51;99680.91;;;12.32
1532;BMP280;759;53.170;8.210;2022-10-15T00:31:17;99694.25;;;12.49
1532;BMP280;759;53.170;8.210;2022-10-15T00:33:48;99760.78;;;12.83
1532;BMP280;759;53.170;8.210;2022-10-15T00:36:16;99687.03;;;12.33
1532;BMP280;759;53.170;8.210;2022-10-15T00:38:42;99712.94;;;12.52
1532;BMP280;759;53.170;8.210;2022-10-15T00:41:12;99700.59;;;12.42
1532;BMP280;759;53.170;8.210;2022-10-15T00:43:45;99788.84;;;12.95
1532;BMP280;759;53.170;8.210;2022-10-15T00:51:43;99720.88;;;12.56
1532;BMP280;759;53.170;8.210;2022-10-15T00:54:11;99673.38;;;12.27
1532;BMP280;759;53.170;8.210;2022-10-15T00:56:39;99741.09;;;12.60
1532;BMP280;759;53.170;8.210;2022-10-15T00:59:05;99672.94;;;12.16
1532;BMP280;759;53.170;8.210;2022-10-15T01:01:31;99712.81;;;12.43
1532;BMP280;759;53.170;8.210;2022-10-15T01:03:57;99749.69;;;12.68
1532;BMP280;759;53.170;8.210;2022-10-15T01:06:23;99728.59;;;12.54
1532;BMP280;759;53.170;8.210;2022-10-15T01:08:49;99714.31;;;12.44
1532;BMP280;759;53.170;8.210;2022-10-15T01:11:19;99789.34;;;12.90
1532;BMP280;759;53.170;8.210;2022-10-15T01:13:59;99691.63;;;12.32
1532;BMP280;759;53.170;8.210;2022-10-15T01:16:49;99703.78;;;12.37
1532;BMP280;759;53.170;8.210;2022-10-15T01:25:33;99764.75;;;12.78
1532;BMP280;759;53.170;8.210;2022-10-15T01:28:14;99669.72;;;12.21
1532;BMP280;759;53.170;8.210;2022-10-15T01:30:49;99690.59;;;12.42
1532;BMP280;759;53.170;8.210;2022-10-15T01:33:25;99655.34;;;12.15
1532;BMP280;759;53.170;8.210;2022-10-15T01:36:01;99667.97;;;12.14
1532;BMP280;759;53.170;8.210;2022-10-15T01:43:55;99671.88;;;12.26
1532;BMP280;759;53.170;8.210;2022-10-15T01:46:25;99666.09;;;12.28
1532;BMP280;759;53.170;8.210;2022-10-15T01:48:53;99668.03;;;12.27
1532;BMP280;759;53.170;8.210;2022-10-15T01:51:20;99655.22;;;12.18
1532;BMP280;759;53.170;8.210;2022-10-15T01:53:48;99764.66;;;12.82
1532;BMP280;759;53.170;8.210;2022-10-15T01:56:19;99744.75;;;12.67
1532;BMP280;759;53.170;8.210;2022-10-15T01:58:48;99665.28;;;12.14
1532;BMP280;759;53.170;8.210;2022-10-15T02:01:15;99687.03;;;12.33
1532;BMP280;759;53.170;8.210;2022-10-15T02:03:51;99747.25;;;12.74
1532;BMP280;759;53.170;8.210;2022-10-15T02:06:27;99672.25;;;12.12
1532;BMP280;759;53.170;8.210;2022-10-15T02:12:05;99728.19;;;12.55
1532;BMP280;759;53.170;8.210;2022-10-15T02:17:10;99712.13;;;12.39
1532;BMP280;759;53.170;8.210;2022-10-15T02:19:52;99747.44;;;12.67
1532;BMP280;759;53.170;8.210;2022-10-15T02:22:32;99716.59;;;12.58
1532;BMP280;759;53.170;8.210;2022-10-15T02:25:05;99745.63;;;12.76
1532;BMP280;759;53.170;8.210;2022-10-15T02:27:34;99705.22;;;12.54
1532;BMP280;759;53.170;8.210;2022-10-15T02:30:02;99742.31;;;12.72
1532;BMP280;759;53.170;8.210;2022-10-15T02:32:30;99738.09;;;12.71
1532;BMP280;759;53.170;8.210;2022-10-15T02:34:56;99741.34;;;12.79
1532;BMP280;759;53.170;8.210;2022-10-15T02:37:25;99731.66;;;12.69
1532;BMP280;759;53.170;8.210;2022-10-15T02:39:51;99742.13;;;12.79
1532;BMP280;759;53.170;8.210;2022-10-15T02:42:17;99743.91;;;12.82
1532;BMP280;759;53.170;8.210;2022-10-15T02:44:42;99710.91;;;12.56
1532;BMP280;759;53.170;8.210;2022-10-15T02:47:08;99741.47;;;12.88
1532;BMP280;759;53.170;8.210;2022-10-15T02:49:34;99718.25;;;12.69
1532;BMP280;759;53.170;8.210;2022-10-15T02:51:59;99719.00;;;12.69
1532;BMP280;759;53.170;8.210;2022-10-15T02:54:24;99670.56;;;12.47
1532;BMP280;759;53.170;8.210;2022-10-15T02:56:50;99690.84;;;12.61
1532;BMP280;759;53.170;8.210;2022-10-15T02:59:15;99678.81;;;12.53
1532;BMP280;759;53.170;8.210;2022-10-15T03:01:42;99629.84;;;12.23
1532;BMP280;759;53.170;8.210;2022-10-15T03:04:07;99674.94;;;12.54
1532;BMP280;759;53.170;8.210;2022-10-15T03:06:33;99646.38;;;12.34
1532;BMP280;759;53.170;8.210;2022-10-15T03:08:58;99652.91;;;12.33
1532;BMP280;759;53.170;8.210;2022-10-15T03:11:23;99640.69;;;12.32
1532;BMP280;759;53.170;8.210;2022-10-15T03:13:48;99683.34;;;12.56
1532;BMP280;759;53.170;8.210;2022-10-15T03:16:14;99673.19;;;12.34
1532;BMP280;759;53.170;8.210;2022-10-15T03:18:39;99662.66;;;12.27
1532;BMP280;759;53.170;8.210;2022-10-15T03:21:04;99635.56;;;12.09
1532;BMP280;759;53.170;8.210;2022-10-15T03:23:30;99662.25;;;12.29
1532;BMP280;759;53.170;8.210;2022-10-15T03:25:55;99658.03;;;12.28
1532;BMP280;759;53.170;8.210;2022-10-15T03:28:21;99686.66;;;12.47
1532;BMP280;759;53.170;8.210;2022-10-15T03:30:47;99666.13;;;12.40
1532;BMP280;759;53.170;8.210;2022-10-15T03:33:12;99657.75;;;12.38
1532;BMP280;759;53.170;8.210;2022-10-15T03:35:38;99618.56;;;12.15
1532;BMP280;759;53.170;8.210;2022-10-15T03:38:04;99632.09;;;12.25
1532;BMP280;759;53.170;8.210;2022-10-15T03:40:30;99668.75;;;12.57
1532;BMP280;759;53.170;8.210;2022-10-15T03:42:55;99686.25;;;12.61
1532;BMP280;759;53.170;8.210;2022-10-15T03:45:21;99628.31;;;12.22
1532;BMP280;759;53.170;8.210;2022-10-15T03:47:47;99703.44;;;12.77
1532;BMP280;759;53.170;8.210;2022-10-15T03:50:12;99663.03;;;12.42
1532;BMP280;759;53.170;8.210;2022-10-15T03:52:38;99693.84;;;12.50
1532;BMP280;759;53.170;8.210;2022-10-15T03:55:04;99651.75;;;12.34
1532;BMP280;759;53.170;8.210;2022-10-15T03:57:30;99661.84;;;12.30
1532;BMP280;759;53.170;8.210;2022-10-15T03:59:55;99660.19;;;12.33
1532;BMP280;759;53.170;8.210;2022-10-15T04:02:21;99608.81;;;11.92
1532;BMP280;759;53.170;8.210;2022-10-15T04:04:46;99648.34;;;12.17
1532;BMP280;759;53.170;8.210;2022-10-15T04:07:11;99702.44;;;12.58
1532;BMP280;759;53.170;8.210;2022-10-15T04:09:37;99648.06;;;12.15
1532;BMP280;759;53.170;8.210;2022-10-15T04:12:02;99652.31;;;12.13
1532;BMP280;759;53.170;8.210;2022-10-15T04:14:28;99610.63;;;11.95
1532;BMP280;759;53.170;8.210;2022-10-15T04:16:54;99650.63;;;12.19
1532;BMP280;759;53.170;8.210;2022-10-15T04:19:20;99659.81;;;12.18
1532;BMP280;759;53.170;8.210;2022-10-15T04:21:45;99713.69;;;12.53
1532;BMP280;759;53.170;8.210;2022-10-15T04:24:10;99639.28;;;11.98
1532;BMP280;759;53.170;8.210;2022-10-15T04:26:36;99705.53;;;12.44
1532;BMP280;759;53.170;8.210;2022-10-15T04:29:01;99704.00;;;12.42
1532;BMP280;759;53.170;8.210;2022-10-15T04:31:26;99663.25;;;12.18
1532;BMP280;759;53.170;8.210;2022-10-15T04:33:51;99681.94;;;12.22
1532;BMP280;759;53.170;8.210;2022-10-15T04:36:17;99671.22;;;12.22
1532;BMP280;759;53.170;8.210;2022-10-15T04:38:42;99695.97;;;12.42
1532;BMP280;759;53.170;8.210;2022-10-15T04:41:09;99645.09;;;12.10
1532;BMP280;759;53.170;8.210;2022-10-15T04:43:35;99677.38;;;12.23
1532;BMP280;759;53.170;8.210;2022-10-15T04:46:03;99668.84;;;12.24
1532;BMP280;759;53.170;8.210;2022-10-15T04:48:30;99688.66;;;12.30
1532;BMP280;759;53.170;8.210;2022-10-15T04:51:03;99690.16;;;12.31
1532;BMP280;759;53.170;8.210;2022-10-15T04:53:29;99664.41;;;12.05
1532;BMP280;759;53.170;8.210;2022-10-15T04:55:59;99663.16;;;12.09
1532;BMP280;759;53.170;8.210;2022-10-15T04:58:25;99627.03;;;11.85
1532;BMP280;759;53.170;8.210;2022-10-15T05:00:50;99676.47;;;12.26
1532;BMP280;759;53.170;8.210;2022-10-15T05:03:15;99629.16;;;11.90
1532;BMP280;759;53.170;8.210;2022-10-15T05:05:41;99637.81;;;11.81
1532;BMP280;759;53.170;8.210;2022-10-15T05:08:06;99662.66;;;11.98
1532;BMP280;759;53.170;8.210;2022-10-15T05:10:31;99665.56;;;12.04
1532;BMP280;759;53.170;8.210;2022-10-15T05:12:56;99636.97;;;11.84
1532;BMP280;759;53.170;8.210;2022-10-15T05:15:22;99655.03;;;11.96
1532;BMP280;759;53.170;8.210;2022-10-15T05:17:49;99620.94;;;11.68
1532;BMP280;759;53.170;8.210;2022-10-15T05:20:14;99633.31;;;11.78
1532;BMP280;759;53.170;8.210;2022-10-15T05:22:39;99688.34;;;12.12
1532;BMP280;759;53.170;8.210;2022-10-15T05:25:05;99682.91;;;12.15
1532;BMP280;759;53.170;8.210;2022-10-15T05:27:30;99670.53;;;11.89
1532;BMP280;759;53.170;8.210;2022-10-15T05:29:55;99656.16;;;11.83
1532;BMP280;759;53.170;8.210;2022-10-15T05:32:21;99643.28;;;11.77
1532;BMP280;759;53.170;8.210;2022-10-15T05:34:46;99693.41;;;11.93
1532;BMP280;759;53.170;8.210;2022-10-15T05:37:11;99651.06;;;11.72
1532;BMP280;759;53.170;8.210;2022-10-15T05:39:36;99664.59;;;11.81
1532;BMP280;759;53.170;8.210;2022-10-15T05:42:02;99728.41;;;12.32
1532;BMP280;759;53.170;8.210;2022-10-15T05:44:27;99696.38;;;12.12
1532;BMP280;759;53.170;8.210;2022-10-15T05:46:52;99649.28;;;11.82
1532;BMP280;759;53.170;8.210;2022-10-15T05:49:18;99674.06;;;12.02
1532;BMP280;759;53.170;8.210;2022-10-15T05:51:43;99727.69;;;12.31
1532;BMP280;759;53.170;8.210;2022-10-15T05:54:08;99693.06;;;12.08
1532;BMP280;759;53.170;8.210;2022-10-15T05:56:34;99675.06;;;11.92
1532;BMP280;759;53.170;8.210;2022-10-15T05:58:59;99674.47;;;12.01
1532;BMP280;759;53.170;8.210;2022-10-15T06:01:24;99631.22;;;11.69
1532;BMP280;759;53.170;8.210;2022-10-15T06:03:50;99646.53;;;11.69
1532;BMP280;759;53.170;8.210;2022-10-15T06:06:21;99665.69;;;11.84
1532;BMP280;759;53.170;8.210;2022-10-15T06:08:47;99637.00;;;11.68
1532;BMP280;759;53.170;8.210;2022-10-15T06:11:13;99697.66;;;12.07
1532;BMP280;759;53.170;8.210;2022-10-15T06:13:40;99630.28;;;11.60
1532;BMP280;759;53.170;8.210;2022-10-15T06:16:06;99629.88;;;11.61
1532;BMP280;759;53.170;8.210;2022-10-15T06:18:32;99646.19;;;11.67
1532;BMP280;759;53.170;8.210;2022-10-15T06:20:57;99628.72;;;11.62
1532;BMP280;759;53.170;8.210;2022-10-15T06:23:23;99645.88;;;11.65
1532;BMP280;759;53.170;8.210;2022-10-15T06:25:48;99650.22;;;11.59
1532;BMP280;759;53.170;8.210;2022-10-15T06:28:14;99656.03;;;11.57
1532;BMP280;759;53.170;8.210;2022-10-15T06:30:39;99643.38;;;11.58
1532;BMP280;759;53.170;8.210;2022-10-15T06:33:04;99698.34;;;11.95
1532;BMP280;759;53.170;8.210;2022-10-15T06:35:30;99669.31;;;11.77
1532;BMP280;759;53.170;8.210;2022-10-15T06:38:02;99633.84;;;11.57
1532;BMP280;759;53.170;8.210;2022-10-15T06:40:28;99687.31;;;11.93
1532;BMP280;759;53.170;8.210;2022-10-15T06:42:53;99691.31;;;12.01
1532;BMP280;759;53.170;8.210;2022-10-15T06:45:19;99722.47;;;12.24
1532;BMP280;759;53.170;8.210;2022-10-15T06:47:44;99731.56;;;12.30
1532;BMP280;759;53.170;8.210;2022-10-15T06:50:09;99697.75;;;12.04
1532;BMP280;759;53.170;8.210;2022-10-15T06:52:35;99714.97;;;12.19
1532;BMP280;759;53.170;8.210;2022-10-15T06:55:00;99667.97;;;11.85
1532;BMP280;759;53.170;8.210;2022-10-15T06:57:26;99673.50;;;11.94
1532;BMP280;759;53.170;8.210;2022-10-15T06:59:52;99723.94;;;12.29
1532;BMP280;759;53.170;8.210;2022-10-15T07:02:17;99661.94;;;11.81
1532;BMP280;759;53.170;8.210;2022-10-15T07:04:46;99683.09;;;12.08
1532;BMP280;759;53.170;8.210;2022-10-15T07:07:11;99706.72;;;12.26
1532;BMP280;759;53.170;8.210;2022-10-15T07:09:37;99689.31;;;12.18
1532;BMP280;759;53.170;8.210;2022-10-15T07:12:03;99765.03;;;12.68
1532;BMP280;759;53.170;8.210;2022-10-15T07:14:28;99712.09;;;12.26
1532;BMP280;759;53.170;8.210;2022-10-15T07:16:53;99688.84;;;12.23
1532;BMP280;759;53.170;8.210;2022-10-15T07:19:19;99694.31;;;12.32
1532;BMP280;759;53.170;8.210;2022-10-15T07:21:44;99671.22;;;12.22
1532;BMP280;759;53.170;8.210;2022-10-15T07:24:09;99702.84;;;12.44
1532;BMP280;759;53.170;8.210;2022-10-15T07:26:35;99692.13;;;12.44
1532;BMP280;759;53.170;8.210;2022-10-15T07:29:00;99714.56;;;12.50
1532;BMP280;759;53.170;8.210;2022-10-15T07:31:25;99719.63;;;12.60
1532;BMP280;759;53.170;8.210;2022-10-15T07:33:51;99716.63;;;12.71
1532;BMP280;759;53.170;8.210;2022-10-15T07:36:16;99686.44;;;12.54
1532;BMP280;759;53.170;8.210;2022-10-15T07:38:41;99729.97;;;12.88
1532;BMP280;759;53.170;8.210;2022-10-15T07:41:08;99716.13;;;12.89
1532;BMP280;759;53.170;8.210;2022-10-15T07:43:35;99741.53;;;13.14
1532;BMP280;759;53.170;8.210;2022-10-15T07:46:01;99687.69;;;12.92
1532;BMP280;759;53.170;8.210;2022-10-15T07:48:27;99701.97;;;13.01
1532;BMP280;759;53.170;8.210;2022-10-15T07:51:04;99729.59;;;13.27
1532;BMP280;759;53.170;8.210;2022-10-15T07:53:30;99674.91;;;12.96
1532;BMP280;759;53.170;8.210;2022-10-15T07:55:59;99722.50;;;13.21
1532;BMP280;759;53.170;8.210;2022-10-15T07:58:25;99709.81;;;13.08
1532;BMP280;759;53.170;8.210;2022-10-15T08:00:50;99711.09;;;13.04
1532;BMP280;759;53.170;8.210;2022-10-15T08:03:16;99688.84;;;12.91
1532;BMP280;759;53.170;8.210;2022-10-15T08:05:41;99691.13;;;13.05
1532;BMP280;759;53.170;8.210;2022-10-15T08:08:06;99678.53;;;13.02
1532;BMP280;759;53.170;8.210;2022-10-15T08:10:32;99668.47;;;13.06
1532;BMP280;759;53.170;8.210;2022-10-15T08:12:57;99716.38;;;13.33
1532;BMP280;759;53.170;8.210;2022-10-15T08:15:22;99711.84;;;13.43
1532;BMP280;759;53.170;8.210;2022-10-15T08:17:47;99704.31;;;13.38
1532;BMP280;759;53.170;8.210;2022-10-15T08:20:13;99719.69;;;13.50
1532;BMP280;759;53.170;8.210;2022-10-15T08:22:38;99681.97;;;13.41
1532;BMP280;759;53.170;8.210;2022-10-15T08:25:04;99670.38;;;13.31
1532;BMP280;759;53.170;8.210;2022-10-15T08:27:29;99680.75;;;13.42
1532;BMP280;759;53.170;8.210;2022-10-15T08:29:55;99709.03;;;13.59
1532;BMP280;759;53.170;8.210;2022-10-15T08:32:20;99658.25;;;13.26
1532;BMP280;759;53.170;8.210;2022-10-15T08:34:45;99682.81;;;13.38
1532;BMP280;759;53.170;8.210;2022-10-15T08:37:11;99694.69;;;13.40
1532;BMP280;759;53.170;8.210;2022-10-15T08:39:36;99683.41;;;13.33
1532;BMP280;759;53.170;8.210;2022-10-15T08:42:04;99680.75;;;13.42
1532;BMP280;759;53.170;8.210;2022-10-15T08:44:43;99726.50;;;13.77
1532;BMP280;759;53.170;8.210;2022-10-15T08:49:51;99699.31;;;13.74
1532;BMP280;759;53.170;8.210;2022-10-15T08:52:40;99775.47;;;14.41
1532;BMP280;759;53.170;8.210;2022-10-15T08:55:18;99680.25;;;13.82
1532;BMP280;759;53.170;8.210;2022-10-15T08:58:09;99671.84;;;13.80
1532;BMP280;759;53.170;8.210;2022-10-15T09:00:58;99684.53;;;13.92
1532;BMP280;759;53.170;8.210;2022-10-15T09:06:37;99680.53;;;13.96
1532;BMP280;759;53.170;8.210;2022-10-15T09:09:19;99683.91;;;14.10
1532;BMP280;759;53.170;8.210;2022-10-15T09:14:51;99675.53;;;14.08
1532;BMP280;759;53.170;8.210;2022-10-15T09:17:21;99682.47;;;14.18
1532;BMP280;759;53.170;8.210;2022-10-15T09:19:50;99682.09;;;14.29
1532;BMP280;759;53.170;8.210;2022-10-15T09:22:18;99674.91;;;14.26
1532;BMP280;759;53.170;8.210;2022-10-15T09:24:45;99676.41;;;14.27
1532;BMP280;759;53.170;8.210;2022-10-15T09:27:37;99773.59;;;14.82
1532;BMP280;759;53.170;8.210;2022-10-15T09:32:54;99660.34;;;13.92
1532;BMP280;759;53.170;8.210;2022-10-15T09:35:25;99654.50;;;13.93
1532;BMP280;759;53.170;8.210;2022-10-15T09:38:26;99669.47;;;14.16
1532;BMP280;759;53.170;8.210;2022-10-15T09:41:15;99686.38;;;14.48
1532;BMP280;759;53.170;8.210;2022-10-15T09:43:46;99663.88;;;14.33
1532;BMP280;759;53.170;8.210;2022-10-15T09:46:13;99731.78;;;14.90
1532;BMP280;759;53.170;8.210;2022-10-15T09:51:34;99690.75;;;14.77
1532;BMP280;759;53.170;8.210;2022-10-15T09:54:10;99657.19;;;14.69
1532;BMP280;759;53.170;8.210;2022-10-15T09:56:51;99654.66;;;14.74
1532;BMP280;759;53.170;8.210;2022-10-15T09:59:20;99658.75;;;14.88
1532;BMP280;759;53.170;8.210;2022-10-15T10:02:09;99662.38;;;14.94
1532;BMP280;759;53.170;8.210;2022-10-15T10:04:40;99656.56;;;15.14
1532;BMP280;759;53.170;8.210;2022-10-15T10:07:06;99658.28;;;15.30
1532;BMP280;759;53.170;8.210;2022-10-15T10:09:48;99644.50;;;15.28
1532;BMP280;759;53.170;8.210;2022-10-15T10:12:20;99647.34;;;15.24
1532;BMP280;759;53.170;8.210;2022-10-15T10:14:57;99704.13;;;15.67
1532;BMP280;759;53.170;8.210;2022-10-15T10:17:25;99647.19;;;15.28
1532;BMP280;759;53.170;8.210;2022-10-15T10:20:17;99742.63;;;15.95
1532;BMP280;759;53.170;8.210;2022-10-15T10:22:48;99643.72;;;15.37
1532;BMP280;759;53.170;8.210;2022-10-15T10:25:33;99758.78;;;16.22
1532;BMP280;759;53.170;8.210;2022-10-15T10:35:54;99652.25;;;15.90
1532;BMP280;759;53.170;8.210;2022-10-15T10:38:34;99719.94;;;16.38
1532;BMP280;759;53.170;8.210;2022-10-15T10:41:10;99654.94;;;15.99
1532;BMP280;759;53.170;8.210;2022-10-15T10:43:40;99663.34;;;16.02
1532;BMP280;759;53.170;8.210;2022-10-15T10:48:48;99657.09;;;15.86
1532;BMP280;759;53.170;8.210;2022-10-15T10:51:21;99768.97;;;16.46
1532;BMP280;759;53.170;8.210;2022-10-15T10:53:54;99762.22;;;16.51
1532;BMP280;759;53.170;8.210;2022-10-15T10:56:23;99731.78;;;16.41
1532;BMP280;759;53.170;8.210;2022-10-15T10:58:57;99678.03;;;16.01
1532;BMP280;759;53.170;8.210;2022-10-15T11:01:23;99676.97;;;15.98
1532;BMP280;759;53.170;8.210;2022-10-15T11:03:49;99677.47;;;15.96
1532;BMP280;759;53.170;8.210;2022-10-15T11:17:10;99649.59;;;15.72
1532;BMP280;759;53.170;8.210;2022-10-15T11:20:02;99737.78;;;16.45
1532;BMP280;759;53.170;8.210;2022-10-15T11:25:15;99741.97;;;16.55
1532;BMP280;759;53.170;8.210;2022-10-15T11:27:50;99742.38;;;16.63
1532;BMP280;759;53.170;8.210;2022-10-15T11:35:47;99682.34;;;15.98
1532;BMP280;759;53.170;8.210;2022-10-15T11:41:13;99746.66;;;16.18
1532;BMP280;759;53.170;8.210;2022-10-15T11:49:28;99682.69;;;15.82
1532;BMP280;759;53.170;8.210;2022-10-15T11:52:21;99731.34;;;16.15
1532;BMP280;759;53.170;8.210;2022-10-15T11:57:45;99690.63;;;15.94
1532;BMP280;759;53.170;8.210;2022-10-15T12:00:24;99667.13;;;15.86
1532;BMP280;759;53.170;8.210;2022-10-15T12:02:53;99615.44;;;15.69
1532;BMP280;759;53.170;8.210;2022-10-15T12:05:37;99615.13;;;15.94
1532;BMP280;759;53.170;8.210;2022-10-15T12:08:08;99639.31;;;16.22
1532;BMP280;759;53.170;8.210;2022-10-15T12:13:17;99649.19;;;16.34
1532;BMP280;759;53.170;8.210;2022-10-15T12:16:13;99668.50;;;16.75
1532;BMP280;759;53.170;8.210;2022-10-15T12:18:44;99599.03;;;16.52
1532;BMP280;759;53.170;8.210;2022-10-15T12:22:12;99682.56;;;17.12
1532;BMP280;759;53.170;8.210;2022-10-15T12:27:21;99664.72;;;17.06
1532;BMP280;759;53.170;8.210;2022-10-15T12:29:49;99641.31;;;17.12
1532;BMP280;759;53.170;8.210;2022-10-15T12:32:26;99661.06;;;17.18
1532;BMP280;759;53.170;8.210;2022-10-15T12:34:57;99644.22;;;16.99
1532;BMP280;759;53.170;8.210;2022-10-15T12:37:26;99667.16;;;17.04
1532;BMP280;759;53.170;8.210;2022-10-15T12:39:58;99656.91;;;17.08
1532;BMP280;759;53.170;8.210;2022-10-15T12:42:30;99651.09;;;17.00
1532;BMP280;759;53.170;8.210;2022-10-15T12:44:58;99642.00;;;16.98
1532;BMP280;759;53.170;8.210;2022-10-15T12:47:52;99651.47;;;16.93
1532;BMP280;759;53.170;8.210;2022-10-15T12:53:27;99651.94;;;16.92
1532;BMP280;759;53.170;8.210;2022-10-15T12:56:22;99648.56;;;16.97
1532;BMP280;759;53.170;8.210;2022-10-15T12:58:52;99612.47;;;16.85
1532;BMP280;759;53.170;8.210;2022-10-15T13:06:35;99650.41;;;16.90
1532;BMP280;759;53.170;8.210;2022-10-15T13:11:45;99620.09;;;16.96
1532;BMP280;759;53.170;8.210;2022-10-15T13:16:39;99624.06;;;16.85
1532;BMP280;759;53.170;8.210;2022-10-15T13:19:26;99640.81;;;16.89
1532;BMP280;759;53.170;8.210;2022-10-15T13:21:56;99596.63;;;16.54
1532;BMP280;759;53.170;8.210;2022-10-15T13:24:25;99622.31;;;16.73
1532;BMP280;759;53.170;8.210;2022-10-15T13:26:51;99622.31;;;16.73
1532;BMP280;759;53.170;8.210;2022-10-15T13:29:20;99609.28;;;16.72
1532;BMP280;759;53.170;8.210;2022-10-15T13:31:46;99627.63;;;16.92
1532;BMP280;759;53.170;8.210;2022-10-15T13:36:40;99598.88;;;16.55
1532;BMP280;759;53.170;8.210;2022-10-15T13:39:19;99571.97;;;16.28
1532;BMP280;759;53.170;8.210;2022-10-15T13:41:46;99551.81;;;16.14
1532;BMP280;759;53.170;8.210;2022-10-15T13:44:23;99613.56;;;16.54
1532;BMP280;759;53.170;8.210;2022-10-15T13:46:48;99581.41;;;16.32
1532;BMP280;759;53.170;8.210;2022-10-15T13:49:14;99609.38;;;16.53
1532;BMP280;759;53.170;8.210;2022-10-15T13:51:44;99607.97;;;16.58
1532;BMP280;759;53.170;8.210;2022-10-15T13:54:14;99596.56;;;16.63
1532;BMP280;759;53.170;8.210;2022-10-15T13:57:00;99608.69;;;16.67
1532;BMP280;759;53.170;8.210;2022-10-15T13:59:28;99610.94;;;16.69
1532;BMP280;759;53.170;8.210;2022-10-15T14:01:56;99593.47;;;16.55
1532;BMP280;759;53.170;8.210;2022-10-15T14:04:29;99598.69;;;16.59
1532;BMP280;759;53.170;8.210;2022-10-15T14:06:59;99607.72;;;16.56
1532;BMP280;759;53.170;8.210;2022-10-15T14:09:33;99608.03;;;16.49
1532;BMP280;759;53.170;8.210;2022-10-15T14:11:59;99607.75;;;16.47
1532;BMP280;759;53.170;8.210;2022-10-15T14:14:34;99599.41;;;16.35
1532;BMP280;759;53.170;8.210;2022-10-15T14:17:03;99578.00;;;16.22
1532;BMP280;759;53.170;8.210;2022-10-15T14:19:30;99584.78;;;16.18
1532;BMP280;759;53.170;8.210;2022-10-15T14:21:57;99594.06;;;16.17
1532;BMP280;759;53.170;8.210;2022-10-15T14:26:52;99519.63;;;15.59
1532;BMP280;759;53.170;8.210;2022-10-15T14:29:26;99593.78;;;16.06
1532;BMP280;759;53.170;8.210;2022-10-15T14:31:52;99587.09;;;15.92
1532;BMP280;759;53.170;8.210;2022-10-15T14:36:58;99598.31;;;15.99
1532;BMP280;759;53.170;8.210;2022-10-15T14:39:29;99607.31;;;15.96
1532;BMP280;759;53.170;8.210;2022-10-15T14:42:00;99608.22;;;15.93
1532;BMP280;759;53.170;8.210;2022-10-15T14:44:42;99609.59;;;15.89
1532;BMP280;759;53.170;8.210;2022-10-15T14:47:18;99590.28;;;15.81
1532;BMP280;759;53.170;8.210;2022-10-15T14:49:44;99592.06;;;15.84
1532;BMP280;759;53.170;8.210;2022-10-15T14:52:12;99607.63;;;15.89
1532;BMP280;759;53.170;8.210;2022-10-15T14:54:41;99593.44;;;15.80
1532;BMP280;759;53.170;8.210;2022-10-15T14:57:23;99568.16;;;15.59
1532;BMP280;759;53.170;8.210;2022-10-15T14:59:51;99588.78;;;15.71
1532;BMP280;759;53.170;8.210;2022-10-15T15:02:18;99585.19;;;15.74
1532;BMP280;759;53.170;8.210;2022-10-15T15:04:45;99581.88;;;15.79
1532;BMP280;759;53.170;8.210;2022-10-15T15:07:17;99593.84;;;15.87
1532;BMP280;759;53.170;8.210;2022-10-15T15:09:46;99592.66;;;15.79
1532;BMP280;759;53.170;8.210;2022-10-15T15:12:15;99577.97;;;15.71
1532;BMP280;759;53.170;8.210;2022-10-15T15:14:41;99520.69;;;15.34
1532;BMP280;759;53.170;8.210;2022-10-15T15:17:11;99581.88;;;15.79
1532;BMP280;759;53.170;8.210;2022-10-15T15:19:38;99584.91;;;15.81
1532;BMP280;759;53.170;8.210;2022-10-15T15:22:03;99531.59;;;15.39
1532;BMP280;759;53.170;8.210;2022-10-15T15:24:28;99594.75;;;15.66
1532;BMP280;759;53.170;8.210;2022-10-15T15:26:53;99575.31;;;15.62
1532;BMP280;759;53.170;8.210;2022-10-15T15:29:18;99550.91;;;15.47
1532;BMP280;759;53.170;8.210;2022-10-15T15:31:44;99584.91;;;15.63
1532;BMP280;759;53.170;8.210;2022-10-15T15:34:09;99526.38;;;15.26
1532;BMP280;759;53.170;8.210;2022-10-15T15:36:35;99585.94;;;15.74
1532;BMP280;759;53.170;8.210;2022-10-15T15:39:00;99531.66;;;15.30
1532;BMP280;759;53.170;8.210;2022-10-15T15:41:25;99549.88;;;15.44
1532;BMP280;759;53.170;8.210;2022-10-15T15:43:51;99556.47;;;15.43
1532;BMP280;759;53.170;8.210;2022-10-15T15:46:19;99504.97;;;15.14
1532;BMP280;759;53.170;8.210;2022-10-15T15:48:44;99564.28;;;15.41
1532;BMP280;759;53.170;8.210;2022-10-15T15:51:19;99577.56;;;15.54
1532;BMP280;759;53.170;8.210;2022-10-15T15:53:45;99525.63;;;15.26
1532;BMP280;759;53.170;8.210;2022-10-15T15:56:11;99596.44;;;15.63
1532;BMP280;759;53.170;8.210;2022-10-15T15:58:36;99596.88;;;15.62
1532;BMP280;759;53.170;8.210;2022-10-15T16:01:01;99600.16;;;15.66
1532;BMP280;759;53.170;8.210;2022-10-15T16:03:26;99523.69;;;15.17
1532;BMP280;759;53.170;8.210;2022-10-15T16:05:51;99584.63;;;15.51
1532;BMP280;759;53.170;8.210;2022-10-15T16:08:17;99594.34;;;15.58
1532;BMP280;759;53.170;8.210;2022-10-15T16:10:42;99588.19;;;15.58
1532;BMP280;759;53.170;8.210;2022-10-15T16:13:08;99609.75;;;15.67
1532;BMP280;759;53.170;8.210;2022-10-15T16:15:34;99566.06;;;15.35
1532;BMP280;759;53.170;8.210;2022-10-15T16:17:59;99605.41;;;15.69
1532;BMP280;759;53.170;8.210;2022-10-15T16:20:24;99575.31;;;15.52
1532;BMP280;759;53.170;8.210;2022-10-15T16:22:51;99601.81;;;15.63
1532;BMP280;759;53.170;8.210;2022-10-15T16:25:17;99607.06;;;15.67
1532;BMP280;759;53.170;8.210;2022-10-15T16:27:42;99585.19;;;15.56
1532;BMP280;759;53.170;8.210;2022-10-15T16:30:13;99575.19;;;15.47
1532;BMP280;759;53.170;8.210;2022-10-15T16:32:39;99594.19;;;15.52
1532;BMP280;759;53.170;8.210;2022-10-15T16:35:04;99601.97;;;15.60
1532;BMP280;759;53.170;8.210;2022-10-15T16:37:29;99597.81;;;15.59
1532;BMP280;759;53.170;8.210;2022-10-15T16:39:55;99612.16;;;15.65
1532;BMP280;759;53.170;8.210;2022-10-15T16:42:21;99609.44;;;15.65
1532;BMP280;759;53.170;8.210;2022-10-15T16:44:46;99595.69;;;15.63